Clayton, New Mexico
Current Conditions -  °F | °C
As of 4:53 PM on Thursday 18 Dec 2014 (Local Time) from KCAO Reporting Station
Few Clouds Few Clouds  
Wind Chill: 26°   Ceiling: Unl
Heat Index: 32°   Visibility: 7mi
Dew Point: 28°   Wind: 6mph
Humidity: 87%   Direction: 90°E
Pressure: 30.06"   Gusts: NA
Location:  36.45°N, 103.18°W
Report Text: KCAO 182353Z AUTO 09005KT 7SM FEW002 00/M02 A3006 RMK AO2
Loading
Personal Weather Stations






























Interactive Weather Map New forecast layout! Learn more

10-Day Weather Forecast

Advertisements
Track Severe Weather on mobile